Aérodrome :
LOGIN :

S'inscrire | Disclaimer

   EN    FR    IT 

 










Légende :    VFR   VFR Marginal   IFR   IFR Intensif   IFR Très Intensif
Visi : 
Plafond : 
>= 8 km
>= 3000ft
5 à 8 km
1000 à 3000 ft
1500m à 5 km
500 à 1000 ft
800 à 1500m
200 à 500 ft
< 800m
< 200 ft
Symboles :   Orages  Brouillard  Fortes neiges  Fortes précipitations  Vent > 20 kt
SIGMETs :   Divers  Orages  Givrage  Turbulence  Onde Orograph.  Cendres Volcan.







- Altitude de l'aérodrome : 313 ft
- Code IATA : LEH
- Voir les cartes d'approche


LFOH - Le Havre Octeville

DERNIER METAR :
  • 171300Z AUTO 33006KT 300V360 3400 BR FEW014 16/14 Q1019 BECMG 9999 NSW

METARs EXPIRÉS :
  • 171230Z AUTO 32005KT 1900 BR SCT001 BKN014 BKN024 15/14 Q1019 BECMG CAVOK
  • 171200Z AUTO 28005KT 270V330 2500 BR BKN009 BKN015 BKN022 14/13 Q1019 BECMG CAVOK
  • 171130Z AUTO 03003KT 320V080 4400 BR OVC010 15/13 Q1019 BECMG 9999 NSW SCT020
  • 171100Z AUTO 07004KT 3000 BR OVC009 14/13 Q1020 BECMG 9999 NSW SCT020
  • 171030Z AUTO VRB02KT 2500 BR BKN002 BKN009 14/13 Q1019 BECMG 9999 NSW SCT020

TAF TAF LFOH
Valide du 17 à 12h jusqu'au 18 à 12h UTC


171100Z 1712/1812 VRB03KT 5000 BR BKN009
BECMG 1712/1714 9999 NSW NSC
BECMG 1800/1804 06010KT
TEMPO 1805/1810 BKN005
ATIS : +33 2 35 54 64 93
Pas de NOTAMs connus pour ce terrain.



MET'MAP, la Météo Aéronautique d'un coup d'oeil ! - Copyright ORBIFLY Décembre 2007 - Disclaimer

ORBIFLY MET'MAP TEAM :

Programmation & Développement : Alexandra Zaïnal
Conception & Développement : Baudouin d'Aumeries
Co-Programmation & Développement : Marc-Olivier Méhu
Soutien technique & logistique : Manuel Goepfert

Contact : metmap@orbifly.com




SOURCES & CREDITS :

   NOAA